sensor_id;sensor_type;location;lat;lon;timestamp;P1;durP1;ratioP1;P2;durP2;ratioP2
4309;SDS011;2168;53.576;9.980;2024-01-27T00:01:06;1.10;;;1.10;;
4309;SDS011;2168;53.576;9.980;2024-01-27T00:03:31;1.10;;;1.10;;
4309;SDS011;2168;53.576;9.980;2024-01-27T00:05:56;0.83;;;0.83;;
4309;SDS011;2168;53.576;9.980;2024-01-27T00:08:22;0.90;;;0.90;;
4309;SDS011;2168;53.576;9.980;2024-01-27T00:10:47;0.90;;;0.90;;
4309;SDS011;2168;53.576;9.980;2024-01-27T00:13:12;1.73;;;1.73;;
4309;SDS011;2168;53.576;9.980;2024-01-27T00:15:38;0.97;;;0.97;;
4309;SDS011;2168;53.576;9.980;2024-01-27T00:18:03;1.07;;;1.07;;
4309;SDS011;2168;53.576;9.980;2024-01-27T00:20:28;0.87;;;0.87;;
4309;SDS011;2168;53.576;9.980;2024-01-27T00:22:53;0.90;;;0.90;;
4309;SDS011;2168;53.576;9.980;2024-01-27T00:25:19;1.17;;;1.17;;
4309;SDS011;2168;53.576;9.980;2024-01-27T00:27:44;1.20;;;1.20;;
4309;SDS011;2168;53.576;9.980;2024-01-27T00:30:09;1.27;;;1.27;;
4309;SDS011;2168;53.576;9.980;2024-01-27T00:32:36;0.93;;;0.93;;
4309;SDS011;2168;53.576;9.980;2024-01-27T00:35:01;0.97;;;0.97;;
4309;SDS011;2168;53.576;9.980;2024-01-27T00:37:27;1.00;;;1.00;;
4309;SDS011;2168;53.576;9.980;2024-01-27T00:39:53;1.20;;;1.20;;
4309;SDS011;2168;53.576;9.980;2024-01-27T00:42:18;1.00;;;1.00;;
4309;SDS011;2168;53.576;9.980;2024-01-27T00:44:48;1.37;;;1.37;;
4309;SDS011;2168;53.576;9.980;2024-01-27T00:47:14;0.80;;;0.80;;
4309;SDS011;2168;53.576;9.980;2024-01-27T00:49:39;0.80;;;0.80;;
4309;SDS011;2168;53.576;9.980;2024-01-27T00:52:04;1.00;;;1.00;;
4309;SDS011;2168;53.576;9.980;2024-01-27T00:54:29;1.00;;;1.00;;
4309;SDS011;2168;53.576;9.980;2024-01-27T00:56:54;1.43;;;1.43;;
4309;SDS011;2168;53.576;9.980;2024-01-27T00:59:20;1.00;;;1.00;;
4309;SDS011;2168;53.576;9.980;2024-01-27T01:01:45;0.97;;;0.97;;
4309;SDS011;2168;53.576;9.980;2024-01-27T01:04:10;0.87;;;0.87;;
4309;SDS011;2168;53.576;9.980;2024-01-27T01:06:38;0.80;;;0.80;;
4309;SDS011;2168;53.576;9.980;2024-01-27T01:09:03;1.10;;;1.10;;
4309;SDS011;2168;53.576;9.980;2024-01-27T01:11:29;1.07;;;1.07;;
4309;SDS011;2168;53.576;9.980;2024-01-27T01:13:54;1.00;;;1.00;;
4309;SDS011;2168;53.576;9.980;2024-01-27T01:16:19;1.67;;;1.67;;
4309;SDS011;2168;53.576;9.980;2024-01-27T01:18:45;0.90;;;0.90;;
4309;SDS011;2168;53.576;9.980;2024-01-27T01:21:10;0.90;;;0.90;;
4309;SDS011;2168;53.576;9.980;2024-01-27T01:23:35;0.90;;;0.90;;
4309;SDS011;2168;53.576;9.980;2024-01-27T01:26:00;0.80;;;0.80;;
4309;SDS011;2168;53.576;9.980;2024-01-27T01:28:25;1.03;;;1.03;;
4309;SDS011;2168;53.576;9.980;2024-01-27T01:30:51;0.90;;;0.90;;
4309;SDS011;2168;53.576;9.980;2024-01-27T01:33:16;0.90;;;0.90;;
4309;SDS011;2168;53.576;9.980;2024-01-27T01:35:41;0.83;;;0.83;;
4309;SDS011;2168;53.576;9.980;2024-01-27T01:38:06;0.90;;;0.90;;
4309;SDS011;2168;53.576;9.980;2024-01-27T01:40:31;0.60;;;0.60;;
4309;SDS011;2168;53.576;9.980;2024-01-27T01:42:58;1.03;;;1.03;;
4309;SDS011;2168;53.576;9.980;2024-01-27T01:45:23;0.93;;;0.93;;
4309;SDS011;2168;53.576;9.980;2024-01-27T01:47:48;0.80;;;0.80;;
4309;SDS011;2168;53.576;9.980;2024-01-27T01:50:13;0.90;;;0.90;;
4309;SDS011;2168;53.576;9.980;2024-01-27T01:52:39;0.97;;;0.97;;
4309;SDS011;2168;53.576;9.980;2024-01-27T01:55:04;0.80;;;0.80;;
4309;SDS011;2168;53.576;9.980;2024-01-27T01:57:30;0.97;;;0.97;;
4309;SDS011;2168;53.576;9.980;2024-01-27T01:59:55;0.80;;;0.80;;
4309;SDS011;2168;53.576;9.980;2024-01-27T02:02:20;0.90;;;0.90;;
4309;SDS011;2168;53.576;9.980;2024-01-27T02:04:46;1.00;;;1.00;;
4309;SDS011;2168;53.576;9.980;2024-01-27T02:07:11;1.10;;;1.10;;
4309;SDS011;2168;53.576;9.980;2024-01-27T02:09:36;0.93;;;0.93;;
4309;SDS011;2168;53.576;9.980;2024-01-27T02:12:01;1.10;;;1.10;;
4309;SDS011;2168;53.576;9.980;2024-01-27T02:14:27;1.00;;;1.00;;
4309;SDS011;2168;53.576;9.980;2024-01-27T02:16:53;0.83;;;0.83;;
4309;SDS011;2168;53.576;9.980;2024-01-27T02:19:18;1.03;;;1.03;;
4309;SDS011;2168;53.576;9.980;2024-01-27T02:21:43;1.20;;;1.20;;
4309;SDS011;2168;53.576;9.980;2024-01-27T02:24:08;1.10;;;1.10;;
4309;SDS011;2168;53.576;9.980;2024-01-27T02:26:34;0.90;;;0.90;;
4309;SDS011;2168;53.576;9.980;2024-01-27T02:28:59;1.10;;;1.10;;
4309;SDS011;2168;53.576;9.980;2024-01-27T02:31:24;0.80;;;0.80;;
4309;SDS011;2168;53.576;9.980;2024-01-27T02:33:50;0.90;;;0.90;;
4309;SDS011;2168;53.576;9.980;2024-01-27T02:36:15;1.03;;;1.03;;
4309;SDS011;2168;53.576;9.980;2024-01-27T02:38:40;1.00;;;1.00;;
4309;SDS011;2168;53.576;9.980;2024-01-27T02:41:05;0.97;;;0.97;;
4309;SDS011;2168;53.576;9.980;2024-01-27T02:43:30;1.00;;;1.00;;
4309;SDS011;2168;53.576;9.980;2024-01-27T02:45:56;1.00;;;1.00;;
4309;SDS011;2168;53.576;9.980;2024-01-27T02:48:21;0.80;;;0.80;;
4309;SDS011;2168;53.576;9.980;2024-01-27T02:50:46;1.10;;;1.10;;
4309;SDS011;2168;53.576;9.980;2024-01-27T02:53:11;1.20;;;1.20;;
4309;SDS011;2168;53.576;9.980;2024-01-27T02:55:36;1.07;;;1.07;;
4309;SDS011;2168;53.576;9.980;2024-01-27T02:58:01;1.30;;;1.30;;
4309;SDS011;2168;53.576;9.980;2024-01-27T03:00:27;1.40;;;1.40;;
4309;SDS011;2168;53.576;9.980;2024-01-27T03:02:52;1.00;;;1.00;;
4309;SDS011;2168;53.576;9.980;2024-01-27T03:05:17;1.10;;;1.10;;
4309;SDS011;2168;53.576;9.980;2024-01-27T03:07:42;0.90;;;0.90;;
4309;SDS011;2168;53.576;9.980;2024-01-27T03:10:07;1.10;;;1.10;;
4309;SDS011;2168;53.576;9.980;2024-01-27T03:12:33;1.07;;;1.07;;
4309;SDS011;2168;53.576;9.980;2024-01-27T03:14:58;1.00;;;1.00;;
4309;SDS011;2168;53.576;9.980;2024-01-27T03:17:23;0.90;;;0.90;;
4309;SDS011;2168;53.576;9.980;2024-01-27T03:19:48;1.40;;;1.40;;
4309;SDS011;2168;53.576;9.980;2024-01-27T03:22:13;1.00;;;1.00;;
4309;SDS011;2168;53.576;9.980;2024-01-27T03:24:38;0.70;;;0.70;;
4309;SDS011;2168;53.576;9.980;2024-01-27T03:27:04;1.00;;;1.00;;
4309;SDS011;2168;53.576;9.980;2024-01-27T03:29:29;0.80;;;0.80;;
4309;SDS011;2168;53.576;9.980;2024-01-27T03:31:54;0.80;;;0.80;;
4309;SDS011;2168;53.576;9.980;2024-01-27T03:34:19;0.93;;;0.93;;
4309;SDS011;2168;53.576;9.980;2024-01-27T03:36:49;0.80;;;0.80;;
4309;SDS011;2168;53.576;9.980;2024-01-27T03:39:15;1.10;;;1.10;;
4309;SDS011;2168;53.576;9.980;2024-01-27T03:41:40;1.07;;;1.07;;
4309;SDS011;2168;53.576;9.980;2024-01-27T03:44:05;1.20;;;1.20;;
4309;SDS011;2168;53.576;9.980;2024-01-27T03:46:30;0.90;;;0.90;;
4309;SDS011;2168;53.576;9.980;2024-01-27T03:48:55;0.93;;;0.93;;
4309;SDS011;2168;53.576;9.980;2024-01-27T03:51:21;0.90;;;0.90;;
4309;SDS011;2168;53.576;9.980;2024-01-27T03:53:46;1.03;;;1.03;;
4309;SDS011;2168;53.576;9.980;2024-01-27T03:56:12;1.27;;;1.27;;
4309;SDS011;2168;53.576;9.980;2024-01-27T03:58:37;1.00;;;1.00;;
4309;SDS011;2168;53.576;9.980;2024-01-27T04:01:03;1.03;;;1.03;;
4309;SDS011;2168;53.576;9.980;2024-01-27T04:03:29;1.00;;;1.00;;
4309;SDS011;2168;53.576;9.980;2024-01-27T04:05:54;1.00;;;1.00;;
4309;SDS011;2168;53.576;9.980;2024-01-27T04:08:20;1.10;;;1.10;;
4309;SDS011;2168;53.576;9.980;2024-01-27T04:10:45;0.87;;;0.87;;
4309;SDS011;2168;53.576;9.980;2024-01-27T04:13:10;0.70;;;0.70;;
4309;SDS011;2168;53.576;9.980;2024-01-27T04:15:35;0.90;;;0.90;;
4309;SDS011;2168;53.576;9.980;2024-01-27T04:18:04;0.80;;;0.80;;
4309;SDS011;2168;53.576;9.980;2024-01-27T04:20:29;1.20;;;1.20;;
4309;SDS011;2168;53.576;9.980;2024-01-27T04:22:54;0.70;;;0.70;;
4309;SDS011;2168;53.576;9.980;2024-01-27T04:25:19;0.90;;;0.90;;
4309;SDS011;2168;53.576;9.980;2024-01-27T04:27:44;1.07;;;1.07;;
4309;SDS011;2168;53.576;9.980;2024-01-27T04:30:10;1.30;;;1.30;;
4309;SDS011;2168;53.576;9.980;2024-01-27T04:32:36;1.13;;;1.13;;
4309;SDS011;2168;53.576;9.980;2024-01-27T04:35:01;1.10;;;1.10;;
4309;SDS011;2168;53.576;9.980;2024-01-27T04:37:26;1.00;;;1.00;;
4309;SDS011;2168;53.576;9.980;2024-01-27T04:39:51;1.00;;;1.00;;
4309;SDS011;2168;53.576;9.980;2024-01-27T04:42:16;1.10;;;1.10;;
4309;SDS011;2168;53.576;9.980;2024-01-27T04:44:42;1.20;;;1.20;;
4309;SDS011;2168;53.576;9.980;2024-01-27T04:47:07;1.30;;;1.30;;
4309;SDS011;2168;53.576;9.980;2024-01-27T04:49:32;1.17;;;1.17;;
4309;SDS011;2168;53.576;9.980;2024-01-27T04:51:57;1.20;;;1.20;;
4309;SDS011;2168;53.576;9.980;2024-01-27T04:54:22;1.00;;;1.00;;
4309;SDS011;2168;53.576;9.980;2024-01-27T04:56:48;1.20;;;1.20;;
4309;SDS011;2168;53.576;9.980;2024-01-27T04:59:13;1.10;;;1.10;;
4309;SDS011;2168;53.576;9.980;2024-01-27T05:01:38;1.30;;;1.30;;
4309;SDS011;2168;53.576;9.980;2024-01-27T05:04:03;1.40;;;1.40;;
4309;SDS011;2168;53.576;9.980;2024-01-27T05:06:29;1.10;;;1.10;;
4309;SDS011;2168;53.576;9.980;2024-01-27T05:08:54;1.00;;;1.00;;
4309;SDS011;2168;53.576;9.980;2024-01-27T05:11:29;1.30;;;1.30;;
4309;SDS011;2168;53.576;9.980;2024-01-27T05:13:55;1.07;;;1.07;;
4309;SDS011;2168;53.576;9.980;2024-01-27T05:16:20;1.20;;;1.20;;
4309;SDS011;2168;53.576;9.980;2024-01-27T05:18:45;0.90;;;0.90;;
4309;SDS011;2168;53.576;9.980;2024-01-27T05:21:11;1.00;;;1.00;;
4309;SDS011;2168;53.576;9.980;2024-01-27T05:23:36;1.03;;;1.03;;
4309;SDS011;2168;53.576;9.980;2024-01-27T05:26:01;1.20;;;1.20;;
4309;SDS011;2168;53.576;9.980;2024-01-27T05:28:26;1.10;;;1.10;;
4309;SDS011;2168;53.576;9.980;2024-01-27T05:30:51;1.10;;;1.10;;
4309;SDS011;2168;53.576;9.980;2024-01-27T05:33:17;1.10;;;1.10;;
4309;SDS011;2168;53.576;9.980;2024-01-27T05:35:42;1.10;;;1.10;;
4309;SDS011;2168;53.576;9.980;2024-01-27T05:38:07;0.83;;;0.83;;
4309;SDS011;2168;53.576;9.980;2024-01-27T05:40:33;1.00;;;1.00;;
4309;SDS011;2168;53.576;9.980;2024-01-27T05:42:58;0.70;;;0.70;;
4309;SDS011;2168;53.576;9.980;2024-01-27T05:45:23;1.03;;;1.03;;
4309;SDS011;2168;53.576;9.980;2024-01-27T05:47:48;1.10;;;1.10;;
4309;SDS011;2168;53.576;9.980;2024-01-27T05:50:14;1.10;;;1.10;;
4309;SDS011;2168;53.576;9.980;2024-01-27T05:52:39;1.20;;;1.20;;
4309;SDS011;2168;53.576;9.980;2024-01-27T05:55:04;1.10;;;1.10;;
4309;SDS011;2168;53.576;9.980;2024-01-27T05:57:31;0.90;;;0.90;;
4309;SDS011;2168;53.576;9.980;2024-01-27T05:59:57;1.10;;;1.10;;
4309;SDS011;2168;53.576;9.980;2024-01-27T06:02:22;0.90;;;0.90;;
4309;SDS011;2168;53.576;9.980;2024-01-27T06:04:47;1.17;;;1.17;;
4309;SDS011;2168;53.576;9.980;2024-01-27T06:07:12;1.23;;;1.23;;
4309;SDS011;2168;53.576;9.980;2024-01-27T06:09:37;1.13;;;1.13;;
4309;SDS011;2168;53.576;9.980;2024-01-27T06:12:03;1.00;;;1.00;;
4309;SDS011;2168;53.576;9.980;2024-01-27T06:14:28;1.00;;;1.00;;
4309;SDS011;2168;53.576;9.980;2024-01-27T06:16:53;1.10;;;1.10;;
4309;SDS011;2168;53.576;9.980;2024-01-27T06:19:19;1.00;;;1.00;;
4309;SDS011;2168;53.576;9.980;2024-01-27T06:21:44;1.20;;;1.20;;
4309;SDS011;2168;53.576;9.980;2024-01-27T06:24:09;1.20;;;1.20;;
4309;SDS011;2168;53.576;9.980;2024-01-27T06:26:34;1.30;;;1.30;;
4309;SDS011;2168;53.576;9.980;2024-01-27T06:28:59;1.00;;;1.00;;
4309;SDS011;2168;53.576;9.980;2024-01-27T06:31:27;1.20;;;1.20;;
4309;SDS011;2168;53.576;9.980;2024-01-27T06:33:52;1.63;;;1.63;;
4309;SDS011;2168;53.576;9.980;2024-01-27T06:36:17;1.30;;;1.30;;
4309;SDS011;2168;53.576;9.980;2024-01-27T06:38:43;0.90;;;0.90;;
4309;SDS011;2168;53.576;9.980;2024-01-27T06:41:08;0.90;;;0.90;;
4309;SDS011;2168;53.576;9.980;2024-01-27T06:43:33;1.03;;;1.03;;
4309;SDS011;2168;53.576;9.980;2024-01-27T06:45:58;1.50;;;1.50;;
4309;SDS011;2168;53.576;9.980;2024-01-27T06:48:23;1.40;;;1.40;;
4309;SDS011;2168;53.576;9.980;2024-01-27T06:50:52;1.00;;;1.00;;
4309;SDS011;2168;53.576;9.980;2024-01-27T06:53:18;1.07;;;1.07;;
4309;SDS011;2168;53.576;9.980;2024-01-27T06:55:43;1.10;;;1.10;;
4309;SDS011;2168;53.576;9.980;2024-01-27T06:58:08;1.10;;;1.10;;
4309;SDS011;2168;53.576;9.980;2024-01-27T07:00:33;0.97;;;0.97;;
4309;SDS011;2168;53.576;9.980;2024-01-27T07:03:02;4.17;;;4.17;;
4309;SDS011;2168;53.576;9.980;2024-01-27T07:05:27;2.47;;;2.47;;
4309;SDS011;2168;53.576;9.980;2024-01-27T07:07:52;0.97;;;0.97;;
4309;SDS011;2168;53.576;9.980;2024-01-27T07:10:18;1.00;;;1.00;;
4309;SDS011;2168;53.576;9.980;2024-01-27T07:12:43;1.00;;;1.00;;
4309;SDS011;2168;53.576;9.980;2024-01-27T07:15:08;1.00;;;1.00;;
4309;SDS011;2168;53.576;9.980;2024-01-27T07:17:34;1.10;;;1.10;;
4309;SDS011;2168;53.576;9.980;2024-01-27T07:19:59;0.90;;;0.90;;
4309;SDS011;2168;53.576;9.980;2024-01-27T07:22:24;1.00;;;1.00;;
4309;SDS011;2168;53.576;9.980;2024-01-27T07:24:49;1.10;;;1.10;;
4309;SDS011;2168;53.576;9.980;2024-01-27T07:27:16;1.20;;;1.20;;
4309;SDS011;2168;53.576;9.980;2024-01-27T07:29:41;1.17;;;1.17;;
4309;SDS011;2168;53.576;9.980;2024-01-27T07:32:07;1.10;;;1.10;;
4309;SDS011;2168;53.576;9.980;2024-01-27T07:34:42;1.20;;;1.20;;
4309;SDS011;2168;53.576;9.980;2024-01-27T07:37:07;1.33;;;1.33;;
4309;SDS011;2168;53.576;9.980;2024-01-27T07:39:33;1.20;;;1.20;;
4309;SDS011;2168;53.576;9.980;2024-01-27T07:41:58;1.20;;;1.20;;
4309;SDS011;2168;53.576;9.980;2024-01-27T07:44:23;1.57;;;1.57;;
4309;SDS011;2168;53.576;9.980;2024-01-27T07:46:48;1.10;;;1.10;;
4309;SDS011;2168;53.576;9.980;2024-01-27T07:49:14;1.00;;;1.00;;
4309;SDS011;2168;53.576;9.980;2024-01-27T07:51:40;1.63;;;1.63;;
4309;SDS011;2168;53.576;9.980;2024-01-27T07:54:05;1.30;;;1.30;;
4309;SDS011;2168;53.576;9.980;2024-01-27T07:56:33;1.40;;;1.40;;
4309;SDS011;2168;53.576;9.980;2024-01-27T07:58:58;1.40;;;1.40;;
4309;SDS011;2168;53.576;9.980;2024-01-27T08:01:23;1.07;;;1.07;;
4309;SDS011;2168;53.576;9.980;2024-01-27T08:03:49;1.20;;;1.20;;
4309;SDS011;2168;53.576;9.980;2024-01-27T08:06:15;1.00;;;1.00;;
4309;SDS011;2168;53.576;9.980;2024-01-27T08:08:41;1.10;;;1.10;;
4309;SDS011;2168;53.576;9.980;2024-01-27T08:11:07;1.30;;;1.30;;
4309;SDS011;2168;53.576;9.980;2024-01-27T08:13:32;1.80;;;1.80;;
4309;SDS011;2168;53.576;9.980;2024-01-27T08:15:57;1.50;;;1.50;;
4309;SDS011;2168;53.576;9.980;2024-01-27T08:18:23;1.63;;;1.63;;
4309;SDS011;2168;53.576;9.980;2024-01-27T08:20:48;1.17;;;1.17;;
4309;SDS011;2168;53.576;9.980;2024-01-27T08:23:14;1.37;;;1.37;;
4309;SDS011;2168;53.576;9.980;2024-01-27T08:25:39;1.33;;;1.33;;
4309;SDS011;2168;53.576;9.980;2024-01-27T08:28:04;1.17;;;1.17;;
4309;SDS011;2168;53.576;9.980;2024-01-27T08:30:30;1.47;;;1.47;;
4309;SDS011;2168;53.576;9.980;2024-01-27T08:32:55;1.60;;;1.60;;
4309;SDS011;2168;53.576;9.980;2024-01-27T08:35:20;2.07;;;2.07;;
4309;SDS011;2168;53.576;9.980;2024-01-27T08:37:45;2.23;;;2.23;;
4309;SDS011;2168;53.576;9.980;2024-01-27T08:40:10;1.37;;;1.37;;
4309;SDS011;2168;53.576;9.980;2024-01-27T08:42:37;1.20;;;1.20;;
4309;SDS011;2168;53.576;9.980;2024-01-27T08:45:02;1.30;;;1.30;;
4309;SDS011;2168;53.576;9.980;2024-01-27T08:47:28;1.70;;;1.70;;
4309;SDS011;2168;53.576;9.980;2024-01-27T08:49:53;1.30;;;1.30;;
4309;SDS011;2168;53.576;9.980;2024-01-27T08:52:18;1.27;;;1.27;;
4309;SDS011;2168;53.576;9.980;2024-01-27T08:54:44;2.07;;;2.07;;
4309;SDS011;2168;53.576;9.980;2024-01-27T08:57:09;1.13;;;1.13;;
4309;SDS011;2168;53.576;9.980;2024-01-27T08:59:34;1.50;;;1.50;;
4309;SDS011;2168;53.576;9.980;2024-01-27T09:02:00;1.60;;;1.60;;
4309;SDS011;2168;53.576;9.980;2024-01-27T09:04:26;1.60;;;1.60;;
4309;SDS011;2168;53.576;9.980;2024-01-27T09:06:51;1.57;;;1.57;;
4309;SDS011;2168;53.576;9.980;2024-01-27T09:09:16;1.50;;;1.50;;
4309;SDS011;2168;53.576;9.980;2024-01-27T09:11:42;2.50;;;2.50;;
4309;SDS011;2168;53.576;9.980;2024-01-27T09:14:07;1.60;;;1.60;;
4309;SDS011;2168;53.576;9.980;2024-01-27T09:16:32;2.30;;;2.30;;
4309;SDS011;2168;53.576;9.980;2024-01-27T09:18:57;1.73;;;1.73;;
4309;SDS011;2168;53.576;9.980;2024-01-27T09:21:23;1.67;;;1.67;;
4309;SDS011;2168;53.576;9.980;2024-01-27T09:23:53;1.50;;;1.50;;
4309;SDS011;2168;53.576;9.980;2024-01-27T09:26:18;1.80;;;1.80;;
4309;SDS011;2168;53.576;9.980;2024-01-27T09:28:44;1.80;;;1.80;;
4309;SDS011;2168;53.576;9.980;2024-01-27T09:31:11;2.07;;;2.07;;
4309;SDS011;2168;53.576;9.980;2024-01-27T09:33:36;1.33;;;1.33;;
4309;SDS011;2168;53.576;9.980;2024-01-27T09:36:01;1.53;;;1.53;;
4309;SDS011;2168;53.576;9.980;2024-01-27T09:38:26;2.30;;;2.30;;
4309;SDS011;2168;53.576;9.980;2024-01-27T09:40:52;2.30;;;2.30;;
4309;SDS011;2168;53.576;9.980;2024-01-27T09:43:17;2.37;;;2.37;;
4309;SDS011;2168;53.576;9.980;2024-01-27T09:45:43;1.90;;;1.90;;
4309;SDS011;2168;53.576;9.980;2024-01-27T09:48:09;2.27;;;2.27;;
4309;SDS011;2168;53.576;9.980;2024-01-27T09:50:36;1.80;;;1.80;;
4309;SDS011;2168;53.576;9.980;2024-01-27T09:53:01;2.40;;;2.40;;
4309;SDS011;2168;53.576;9.980;2024-01-27T09:55:27;2.73;;;2.73;;
4309;SDS011;2168;53.576;9.980;2024-01-27T09:57:52;2.07;;;2.07;;
4309;SDS011;2168;53.576;9.980;2024-01-27T10:00:18;2.13;;;2.13;;
4309;SDS011;2168;53.576;9.980;2024-01-27T10:02:44;2.17;;;2.17;;
4309;SDS011;2168;53.576;9.980;2024-01-27T10:05:10;2.90;;;2.90;;
4309;SDS011;2168;53.576;9.980;2024-01-27T10:07:35;2.30;;;2.30;;
4309;SDS011;2168;53.576;9.980;2024-01-27T10:10:00;1.90;;;1.90;;
4309;SDS011;2168;53.576;9.980;2024-01-27T10:12:26;1.93;;;1.93;;
4309;SDS011;2168;53.576;9.980;2024-01-27T10:14:53;1.83;;;1.83;;
4309;SDS011;2168;53.576;9.980;2024-01-27T10:17:22;2.10;;;2.10;;
4309;SDS011;2168;53.576;9.980;2024-01-27T10:19:58;1.97;;;1.97;;
4309;SDS011;2168;53.576;9.980;2024-01-27T10:22:24;3.07;;;3.07;;
4309;SDS011;2168;53.576;9.980;2024-01-27T10:24:51;2.27;;;2.27;;
4309;SDS011;2168;53.576;9.980;2024-01-27T10:27:16;3.10;;;3.10;;
4309;SDS011;2168;53.576;9.980;2024-01-27T10:29:51;3.00;;;3.00;;
4309;SDS011;2168;53.576;9.980;2024-01-27T10:32:16;3.30;;;3.30;;
4309;SDS011;2168;53.576;9.980;2024-01-27T10:34:42;3.53;;;3.53;;
4309;SDS011;2168;53.576;9.980;2024-01-27T10:37:07;3.53;;;3.53;;
4309;SDS011;2168;53.576;9.980;2024-01-27T10:39:32;2.70;;;2.70;;
4309;SDS011;2168;53.576;9.980;2024-01-27T10:41:57;2.57;;;2.57;;
4309;SDS011;2168;53.576;9.980;2024-01-27T10:44:27;2.03;;;2.03;;
4309;SDS011;2168;53.576;9.980;2024-01-27T10:46:54;2.50;;;2.50;;
4309;SDS011;2168;53.576;9.980;2024-01-27T10:49:20;2.60;;;2.60;;
4309;SDS011;2168;53.576;9.980;2024-01-27T10:51:53;2.77;;;2.77;;
4309;SDS011;2168;53.576;9.980;2024-01-27T10:54:23;4.17;;;4.17;;
4309;SDS011;2168;53.576;9.980;2024-01-27T10:56:51;2.60;;;2.60;;
4309;SDS011;2168;53.576;9.980;2024-01-27T10:59:16;1.87;;;1.87;;
4309;SDS011;2168;53.576;9.980;2024-01-27T11:01:44;1.73;;;1.73;;
4309;SDS011;2168;53.576;9.980;2024-01-27T11:04:10;2.20;;;2.20;;
4309;SDS011;2168;53.576;9.980;2024-01-27T11:06:36;2.63;;;2.63;;
4309;SDS011;2168;53.576;9.980;2024-01-27T11:09:02;3.37;;;3.37;;
4309;SDS011;2168;53.576;9.980;2024-01-27T11:11:30;2.30;;;2.30;;
4309;SDS011;2168;53.576;9.980;2024-01-27T11:13:55;5.00;;;5.00;;
4309;SDS011;2168;53.576;9.980;2024-01-27T11:16:21;2.73;;;2.73;;
4309;SDS011;2168;53.576;9.980;2024-01-27T11:18:48;2.27;;;2.27;;
4309;SDS011;2168;53.576;9.980;2024-01-27T11:21:14;2.80;;;2.80;;
4309;SDS011;2168;53.576;9.980;2024-01-27T11:23:40;2.17;;;2.17;;
4309;SDS011;2168;53.576;9.980;2024-01-27T11:26:05;3.07;;;3.07;;
4309;SDS011;2168;53.576;9.980;2024-01-27T11:28:31;3.57;;;3.57;;
4309;SDS011;2168;53.576;9.980;2024-01-27T11:30:56;2.87;;;2.87;;
4309;SDS011;2168;53.576;9.980;2024-01-27T11:33:24;2.07;;;2.07;;
4309;SDS011;2168;53.576;9.980;2024-01-27T11:35:59;2.90;;;2.90;;
4309;SDS011;2168;53.576;9.980;2024-01-27T11:38:24;2.50;;;2.50;;
4309;SDS011;2168;53.576;9.980;2024-01-27T11:40:49;2.40;;;2.40;;
4309;SDS011;2168;53.576;9.980;2024-01-27T11:43:14;2.20;;;2.20;;
4309;SDS011;2168;53.576;9.980;2024-01-27T11:45:40;1.83;;;1.83;;
4309;SDS011;2168;53.576;9.980;2024-01-27T11:48:05;2.00;;;2.00;;
4309;SDS011;2168;53.576;9.980;2024-01-27T11:50:31;2.90;;;2.90;;
4309;SDS011;2168;53.576;9.980;2024-01-27T11:52:56;1.87;;;1.87;;
4309;SDS011;2168;53.576;9.980;2024-01-27T11:55:22;2.10;;;2.10;;
4309;SDS011;2168;53.576;9.980;2024-01-27T11:57:47;2.33;;;2.33;;
4309;SDS011;2168;53.576;9.980;2024-01-27T12:00:12;3.47;;;3.47;;
4309;SDS011;2168;53.576;9.980;2024-01-27T12:02:38;2.90;;;2.90;;
4309;SDS011;2168;53.576;9.980;2024-01-27T12:05:07;3.03;;;3.03;;
4309;SDS011;2168;53.576;9.980;2024-01-27T12:07:33;1.60;;;1.60;;
4309;SDS011;2168;53.576;9.980;2024-01-27T12:09:58;2.83;;;2.83;;
4309;SDS011;2168;53.576;9.980;2024-01-27T12:12:24;2.03;;;2.03;;
4309;SDS011;2168;53.576;9.980;2024-01-27T12:14:52;1.80;;;1.80;;
4309;SDS011;2168;53.576;9.980;2024-01-27T12:17:18;1.97;;;1.97;;
4309;SDS011;2168;53.576;9.980;2024-01-27T12:19:47;2.50;;;2.50;;
4309;SDS011;2168;53.576;9.980;2024-01-27T12:22:20;2.10;;;2.10;;
4309;SDS011;2168;53.576;9.980;2024-01-27T12:24:46;2.70;;;2.70;;
4309;SDS011;2168;53.576;9.980;2024-01-27T12:27:11;1.80;;;1.80;;
4309;SDS011;2168;53.576;9.980;2024-01-27T12:29:36;2.60;;;2.60;;
4309;SDS011;2168;53.576;9.980;2024-01-27T12:32:01;2.17;;;2.17;;
4309;SDS011;2168;53.576;9.980;2024-01-27T12:34:26;3.20;;;3.20;;
4309;SDS011;2168;53.576;9.980;2024-01-27T12:36:52;2.20;;;2.20;;
4309;SDS011;2168;53.576;9.980;2024-01-27T12:39:17;1.80;;;1.80;;
4309;SDS011;2168;53.576;9.980;2024-01-27T12:41:42;2.20;;;2.20;;
4309;SDS011;2168;53.576;9.980;2024-01-27T12:44:08;2.27;;;2.27;;
4309;SDS011;2168;53.576;9.980;2024-01-27T12:46:33;2.07;;;2.07;;
4309;SDS011;2168;53.576;9.980;2024-01-27T12:48:58;3.17;;;3.17;;
4309;SDS011;2168;53.576;9.980;2024-01-27T12:51:23;2.17;;;2.17;;
4309;SDS011;2168;53.576;9.980;2024-01-27T12:53:49;2.47;;;2.47;;
4309;SDS011;2168;53.576;9.980;2024-01-27T12:56:14;1.97;;;1.97;;
4309;SDS011;2168;53.576;9.980;2024-01-27T12:58:40;2.00;;;2.00;;
4309;SDS011;2168;53.576;9.980;2024-01-27T13:01:06;2.80;;;2.80;;
4309;SDS011;2168;53.576;9.980;2024-01-27T13:03:31;2.40;;;2.40;;
4309;SDS011;2168;53.576;9.980;2024-01-27T13:05:57;2.17;;;2.17;;
4309;SDS011;2168;53.576;9.980;2024-01-27T13:08:23;2.17;;;2.17;;
4309;SDS011;2168;53.576;9.980;2024-01-27T13:10:48;2.50;;;2.50;;
4309;SDS011;2168;53.576;9.980;2024-01-27T13:13:14;1.87;;;1.87;;
4309;SDS011;2168;53.576;9.980;2024-01-27T13:15:39;5.43;;;5.33;;
4309;SDS011;2168;53.576;9.980;2024-01-27T13:18:04;2.43;;;2.43;;
4309;SDS011;2168;53.576;9.980;2024-01-27T13:20:30;3.03;;;3.03;;
4309;SDS011;2168;53.576;9.980;2024-01-27T13:22:55;2.37;;;2.37;;
4309;SDS011;2168;53.576;9.980;2024-01-27T13:25:20;2.90;;;2.90;;
4309;SDS011;2168;53.576;9.980;2024-01-27T13:27:45;3.70;;;3.70;;
4309;SDS011;2168;53.576;9.980;2024-01-27T13:30:11;1.77;;;1.77;;
4309;SDS011;2168;53.576;9.980;2024-01-27T13:32:37;2.10;;;2.10;;
4309;SDS011;2168;53.576;9.980;2024-01-27T13:35:02;1.70;;;1.70;;
4309;SDS011;2168;53.576;9.980;2024-01-27T13:37:27;1.50;;;1.50;;
4309;SDS011;2168;53.576;9.980;2024-01-27T13:39:58;2.33;;;2.33;;
4309;SDS011;2168;53.576;9.980;2024-01-27T13:42:23;1.87;;;1.87;;
4309;SDS011;2168;53.576;9.980;2024-01-27T13:44:49;2.10;;;2.10;;
4309;SDS011;2168;53.576;9.980;2024-01-27T13:47:14;2.07;;;2.07;;
4309;SDS011;2168;53.576;9.980;2024-01-27T13:49:39;2.50;;;2.50;;
4309;SDS011;2168;53.576;9.980;2024-01-27T13:52:05;2.70;;;2.70;;
4309;SDS011;2168;53.576;9.980;2024-01-27T13:54:30;2.00;;;2.00;;
4309;SDS011;2168;53.576;9.980;2024-01-27T13:56:57;1.40;;;1.40;;
4309;SDS011;2168;53.576;9.980;2024-01-27T13:59:23;2.60;;;2.60;;
4309;SDS011;2168;53.576;9.980;2024-01-27T14:01:48;1.80;;;1.80;;
4309;SDS011;2168;53.576;9.980;2024-01-27T14:04:13;2.60;;;2.60;;
4309;SDS011;2168;53.576;9.980;2024-01-27T14:06:39;2.30;;;2.30;;
4309;SDS011;2168;53.576;9.980;2024-01-27T14:09:04;2.00;;;2.00;;
4309;SDS011;2168;53.576;9.980;2024-01-27T14:11:29;2.10;;;2.10;;
4309;SDS011;2168;53.576;9.980;2024-01-27T14:13:54;3.70;;;3.70;;
4309;SDS011;2168;53.576;9.980;2024-01-27T14:16:20;4.83;;;4.80;;
4309;SDS011;2168;53.576;9.980;2024-01-27T14:18:51;7.27;;;7.10;;
4309;SDS011;2168;53.576;9.980;2024-01-27T14:21:16;5.87;;;5.77;;
4309;SDS011;2168;53.576;9.980;2024-01-27T14:23:42;3.97;;;3.97;;
4309;SDS011;2168;53.576;9.980;2024-01-27T14:26:07;3.50;;;3.50;;
4309;SDS011;2168;53.576;9.980;2024-01-27T14:28:39;5.40;;;5.30;;
4309;SDS011;2168;53.576;9.980;2024-01-27T14:31:04;2.60;;;2.60;;
4309;SDS011;2168;53.576;9.980;2024-01-27T14:33:31;2.47;;;2.47;;
4309;SDS011;2168;53.576;9.980;2024-01-27T14:35:58;3.30;;;3.30;;
4309;SDS011;2168;53.576;9.980;2024-01-27T14:38:24;3.53;;;3.53;;
4309;SDS011;2168;53.576;9.980;2024-01-27T14:40:49;1.80;;;1.80;;
4309;SDS011;2168;53.576;9.980;2024-01-27T14:43:14;3.20;;;3.20;;
4309;SDS011;2168;53.576;9.980;2024-01-27T14:45:43;1.33;;;1.33;;
4309;SDS011;2168;53.576;9.980;2024-01-27T14:48:08;1.30;;;1.30;;
4309;SDS011;2168;53.576;9.980;2024-01-27T14:50:34;1.70;;;1.70;;
4309;SDS011;2168;53.576;9.980;2024-01-27T14:52:59;1.20;;;1.20;;
4309;SDS011;2168;53.576;9.980;2024-01-27T14:55:27;2.90;;;2.90;;
4309;SDS011;2168;53.576;9.980;2024-01-27T14:57:52;0.80;;;0.80;;
4309;SDS011;2168;53.576;9.980;2024-01-27T15:00:17;1.10;;;1.10;;
4309;SDS011;2168;53.576;9.980;2024-01-27T15:02:43;1.30;;;1.30;;
4309;SDS011;2168;53.576;9.980;2024-01-27T15:05:10;1.60;;;1.60;;